METAR Data
IDs: Format: Raw Decoded Include TAF

Data at: 0226 UTC 03 Jul 2022

PHNL 030153Z 06017G25KT 10SM FEW026 SCT050 SCT250 29/18 A3003 RMK AO2 PK WND 06026/0131 SLP169 T02940178
PHNL 030053Z 06019G26KT 10SM FEW026 SCT050 BKN250 30/18 A3003 RMK AO2 PK WND 08030/0043 SLP170 T03000178

PHNL 022327Z 0300/0406 06019G27KT P6SM FEW030 FEW045
  FM030500 05014G22KT P6SM FEW030 SCT045
  FM031000 06012KT P6SM VCSH SCT025 BKN045
  FM032000 06018G26KT P6SM FEW030 FEW045


PHOG 030154Z 07026G36KT 10SM FEW025 SCT060 30/18 A2998 RMK AO2 PK WND 05036/0136 SLP156 T03000178
PHOG 030054Z 06020G36KT 10SM FEW030 SCT065 31/19 A2999 RMK AO2 PK WND 04037/0016 SLP159 T03060189

PHOG 022327Z 0300/0324 06022G32KT P6SM FEW030 SCT050
  FM030500 05014G21KT P6SM FEW025 SCT045
  FM031000 05011KT P6SM VCSH SCT025 BKN040
  FM031900 05020G30KT P6SM FEW030 SCT050


PHKO 030153Z 21011KT 10SM BKN055 OVC070 28/21 A2999 RMK AO2 SLP153 T02830211
PHKO 030053Z 18013KT 10SM FEW015 BKN055 OVC070 29/21 A2998 RMK AO2 SLP153 T02940211

PHKO 022327Z 0300/0324 21012KT P6SM FEW030 SCT050
  FM030500 VRB06KT P6SM FEW025 FEW050
  FM032000 23011KT P6SM FEW030 SCT050


PHTO 030153Z 04004KT 10SM SCT030 BKN055 27/20 A3005 RMK AO2 SLP175 T02720200
PHTO 030053Z 34004KT 10SM FEW065 BKN080 27/19 A3006 RMK AO2 SLP178 T02670189

PHTO 022327Z 0300/0324 08011KT P6SM SCT025 BKN045
  FM030500 24005KT P6SM VCSH SCT025 BKN040
  FM032000 06008KT P6SM SCT025 BKN045


PHLI 030153Z 05013KT 10SM FEW026 BKN033 BKN043 28/20 A3008 RMK AO2 SLP184 T02780200
PHLI 030053Z 05016KT 10SM FEW027 28/20 A3009 RMK AO2 SLP185 T02830200

PHLI 022327Z 0300/0324 05017KT P6SM SCT025 SCT035
  FM031000 06016KT P6SM VCSH SCT025 BKN040
  FM032000 06015KT P6SM SCT025 SCT035